Time;durP1;ratioP1;P1;durP2;ratioP2;P2;SDS_P1;SDS_P2;PMS_P1;PMS_P2;Temp;Humidity;BMP_temperature;BMP_pressure;BME280_temperature;BME280_humidity;BME280_pressure;Samples;Min_cycle;Max_cycle;Signal;HPM_P1;HPM_P2
2021/09/02 00:00:54;;;;;;;9.25;6.90;;;;;;;;;;5082201;28;20035;-79
2021/09/02 00:03:20;;;;;;;11.50;7.18;;;;;;;;;;5100473;28;20035;-79
2021/09/02 00:05:46;;;;;;;11.10;7.30;;;;;;;;;;5082177;28;20420;-80
2021/09/02 00:08:12;;;;;;;8.35;6.82;;;;;;;;;;5098214;28;20039;-79
2021/09/02 00:10:38;;;;;;;11.45;6.47;;;;;;;;;;5099212;28;20081;-79
2021/09/02 00:13:04;;;;;;;9.75;7.30;;;;;;;;;;5098857;28;20032;-79
2021/09/02 00:15:30;;;;;;;8.43;6.18;;;;;;;;;;5098356;28;20032;-79
2021/09/02 00:17:56;;;;;;;9.73;7.03;;;;;;;;;;5097460;28;20028;-79
2021/09/02 00:20:22;;;;;;;14.13;7.72;;;;;;;;;;5103093;28;20109;-79
2021/09/02 00:22:48;;;;;;;10.10;6.57;;;;;;;;;;5100549;28;20031;-78
2021/09/02 00:25:14;;;;;;;10.75;6.63;;;;;;;;;;5081684;28;20546;-78
2021/09/02 00:27:41;;;;;;;11.07;7.15;;;;;;;;;;5081440;28;20024;-79
2021/09/02 00:30:07;;;;;;;10.60;6.70;;;;;;;;;;5098077;28;20436;-79
2021/09/02 00:32:33;;;;;;;23.77;6.78;;;;;;;;;;5080482;28;20083;-79
2021/09/02 00:34:59;;;;;;;7.80;6.60;;;;;;;;;;5098913;28;20024;-79
2021/09/02 00:37:25;;;;;;;8.55;6.78;;;;;;;;;;5098817;28;20039;-79
2021/09/02 00:39:51;;;;;;;10.13;6.97;;;;;;;;;;5097922;28;20066;-78
2021/09/02 00:42:17;;;;;;;10.00;7.07;;;;;;;;;;5098029;28;20341;-81
2021/09/02 00:44:44;;;;;;;9.43;6.57;;;;;;;;;;5094857;28;20038;-81
2021/09/02 00:47:11;;;;;;;11.18;7.13;;;;;;;;;;5079097;28;20392;-79
2021/09/02 00:49:37;;;;;;;17.65;7.40;;;;;;;;;;5096583;28;20024;-79
2021/09/02 00:52:11;;;;;;;10.20;7.45;;;;;;;;;;5078576;28;20024;-78
2021/09/02 00:54:37;;;;;;;11.95;7.15;;;;;;;;;;5096482;28;20039;-81
2021/09/02 00:57:03;;;;;;;11.15;7.18;;;;;;;;;;5097932;28;20031;-81
2021/09/02 00:59:29;;;;;;;11.23;7.70;;;;;;;;;;5095309;28;20077;-81
2021/09/02 01:01:55;;;;;;;12.30;7.82;;;;;;;;;;5077543;28;20028;-80
2021/09/02 01:04:21;;;;;;;12.00;7.68;;;;;;;;;;5092273;28;20039;-80
2021/09/02 01:06:48;;;;;;;10.80;7.40;;;;;;;;;;5075804;28;20059;-81
2021/09/02 01:09:14;;;;;;;11.45;8.02;;;;;;;;;;5077311;28;20032;-80
2021/09/02 01:11:40;;;;;;;14.20;9.07;;;;;;;;;;5077583;28;20169;-81
2021/09/02 01:14:06;;;;;;;13.13;7.97;;;;;;;;;;5076992;28;20467;-80
2021/09/02 01:16:32;;;;;;;11.05;8.05;;;;;;;;;;5077177;28;20465;-80
2021/09/02 01:18:58;;;;;;;12.18;8.40;;;;;;;;;;5094949;28;20077;-80
2021/09/02 01:21:24;;;;;;;12.38;9.10;;;;;;;;;;5095555;28;20024;-81
2021/09/02 01:23:50;;;;;;;15.45;9.43;;;;;;;;;;5094582;28;20032;-79
2021/09/02 01:26:17;;;;;;;15.07;10.25;;;;;;;;;;5095523;28;20032;-80
2021/09/02 01:28:43;;;;;;;15.10;9.88;;;;;;;;;;5094625;28;20107;-80
2021/09/02 01:31:11;;;;;;;14.73;9.68;;;;;;;;;;5094590;28;20099;-80
2021/09/02 01:33:37;;;;;;;15.70;10.70;;;;;;;;;;5095152;28;20040;-79
2021/09/02 01:36:03;;;;;;;18.13;11.25;;;;;;;;;;5076959;28;20028;-80
2021/09/02 01:38:29;;;;;;;12.95;10.13;;;;;;;;;;5095408;28;20504;-79
2021/09/02 01:40:55;;;;;;;14.73;9.95;;;;;;;;;;5060040;28;20028;-80
2021/09/02 01:43:21;;;;;;;15.57;10.15;;;;;;;;;;5075003;28;20040;-80
2021/09/02 01:45:47;;;;;;;12.93;9.38;;;;;;;;;;5078350;28;20063;-79
2021/09/02 01:48:13;;;;;;;13.38;9.88;;;;;;;;;;5080227;28;20048;-78
2021/09/02 01:50:40;;;;;;;14.52;9.93;;;;;;;;;;5079584;28;20040;-79
2021/09/02 01:53:07;;;;;;;16.60;10.32;;;;;;;;;;5079749;28;20029;-80
2021/09/02 01:55:34;;;;;;;18.23;11.23;;;;;;;;;;5079449;28;20024;-79
2021/09/02 01:58:00;;;;;;;17.90;12.10;;;;;;;;;;5080389;28;20107;-79
2021/09/02 02:00:26;;;;;;;17.27;11.68;;;;;;;;;;5081258;28;20034;-79
2021/09/02 02:02:52;;;;;;;14.95;10.93;;;;;;;;;;5083377;28;20369;-79
2021/09/02 02:05:18;;;;;;;16.85;12.43;;;;;;;;;;5089933;28;20162;-80
2021/09/02 02:07:44;;;;;;;17.88;11.10;;;;;;;;;;5100651;28;20024;-79
2021/09/02 02:10:12;;;;;;;16.63;11.18;;;;;;;;;;5094438;28;20020;-80
2021/09/02 02:12:38;;;;;;;19.42;11.88;;;;;;;;;;5082297;28;20486;-79
2021/09/02 02:15:05;;;;;;;16.63;11.52;;;;;;;;;;5081223;28;20055;-79
2021/09/02 02:17:32;;;;;;;16.48;11.88;;;;;;;;;;5081966;28;20400;-80
2021/09/02 02:19:58;;;;;;;16.65;11.95;;;;;;;;;;5101996;28;20032;-79
2021/09/02 02:22:24;;;;;;;16.65;11.10;;;;;;;;;;5083378;28;20048;-80
2021/09/02 02:24:50;;;;;;;16.20;11.52;;;;;;;;;;5099238;28;20111;-80
2021/09/02 02:27:16;;;;;;;15.00;11.43;;;;;;;;;;5099083;28;20410;-80
2021/09/02 02:29:42;;;;;;;16.40;11.05;;;;;;;;;;5080548;28;20062;-80
2021/09/02 02:32:08;;;;;;;17.88;12.00;;;;;;;;;;5100656;28;20088;-81
2021/09/02 02:34:34;;;;;;;15.50;11.23;;;;;;;;;;5100745;28;20093;-80
2021/09/02 02:37:00;;;;;;;14.57;11.50;;;;;;;;;;5099105;28;20036;-79
2021/09/02 02:39:26;;;;;;;14.32;10.55;;;;;;;;;;5102403;28;20047;-78
2021/09/02 02:41:52;;;;;;;18.63;11.13;;;;;;;;;;5100886;28;20051;-78
2021/09/02 02:44:18;;;;;;;18.98;11.80;;;;;;;;;;5084223;28;20031;-78
2021/09/02 02:46:44;;;;;;;14.45;12.30;;;;;;;;;;5101671;28;20020;-78
2021/09/02 02:49:10;;;;;;;13.93;11.73;;;;;;;;;;5098223;28;20028;-78
2021/09/02 02:51:36;;;;;;;18.20;11.52;;;;;;;;;;5097167;28;20029;-78
2021/09/02 02:54:03;;;;;;;14.85;11.57;;;;;;;;;;5094820;28;20513;-78
2021/09/02 02:56:29;;;;;;;16.67;12.50;;;;;;;;;;5076734;28;20418;-78
2021/09/02 02:58:55;;;;;;;18.35;12.98;;;;;;;;;;5075443;28;20016;-78
2021/09/02 03:01:21;;;;;;;18.67;12.23;;;;;;;;;;5095113;28;20083;-78
2021/09/02 03:03:47;;;;;;;23.98;16.67;;;;;;;;;;5094069;28;20059;-78
2021/09/02 03:06:13;;;;;;;22.90;13.18;;;;;;;;;;5076156;28;20033;-78
2021/09/02 03:08:39;;;;;;;19.77;12.32;;;;;;;;;;5093131;28;20395;-78
2021/09/02 03:11:06;;;;;;;15.50;11.32;;;;;;;;;;5077400;28;20345;-78
2021/09/02 03:13:32;;;;;;;15.95;11.80;;;;;;;;;;5076656;28;20023;-78
2021/09/02 03:15:58;;;;;;;18.10;13.32;;;;;;;;;;5075594;28;20021;-77
2021/09/02 03:18:24;;;;;;;20.45;13.68;;;;;;;;;;5075410;28;20028;-78
2021/09/02 03:20:50;;;;;;;19.10;13.55;;;;;;;;;;5075125;28;20107;-78
2021/09/02 03:23:17;;;;;;;18.48;12.57;;;;;;;;;;5077434;28;20496;-78
2021/09/02 03:25:43;;;;;;;19.30;11.98;;;;;;;;;;5097403;28;20028;-78
2021/09/02 03:28:09;;;;;;;16.92;12.25;;;;;;;;;;5097367;28;20040;-79
2021/09/02 03:30:35;;;;;;;19.77;12.50;;;;;;;;;;5096109;28;20030;-78
2021/09/02 03:33:01;;;;;;;18.33;11.15;;;;;;;;;;5057744;28;1103998;-78
2021/09/02 03:35:27;;;;;;;13.75;10.73;;;;;;;;;;5084572;28;20397;-78
2021/09/02 03:37:53;;;;;;;17.40;11.25;;;;;;;;;;5076786;28;20040;-77
2021/09/02 03:40:19;;;;;;;17.13;11.63;;;;;;;;;;5075935;28;20028;-78
2021/09/02 03:42:45;;;;;;;15.70;10.52;;;;;;;;;;5077651;28;20032;-78
2021/09/02 03:45:11;;;;;;;16.48;11.07;;;;;;;;;;5077335;28;20048;-78
2021/09/02 03:47:38;;;;;;;17.83;11.73;;;;;;;;;;5058172;28;20090;-78
2021/09/02 03:50:04;;;;;;;20.50;13.30;;;;;;;;;;5057541;28;20024;-78
2021/09/02 03:52:30;;;;;;;25.17;12.43;;;;;;;;;;5058322;28;20021;-78
2021/09/02 03:54:56;;;;;;;19.38;12.38;;;;;;;;;;5076545;28;20028;-78
2021/09/02 03:57:22;;;;;;;17.85;11.63;;;;;;;;;;5078390;28;20032;-78
2021/09/02 03:59:48;;;;;;;15.60;11.25;;;;;;;;;;5095653;28;20028;-78
2021/09/02 04:02:14;;;;;;;16.23;10.95;;;;;;;;;;5079587;28;20024;-78
2021/09/02 04:04:40;;;;;;;14.55;11.18;;;;;;;;;;5097488;28;20032;-78
2021/09/02 04:07:06;;;;;;;17.85;11.80;;;;;;;;;;5098563;28;20040;-78
2021/09/02 04:09:32;;;;;;;16.95;11.70;;;;;;;;;;5079093;28;20044;-78
2021/09/02 04:11:58;;;;;;;20.13;12.38;;;;;;;;;;5079515;28;20024;-78
2021/09/02 04:14:24;;;;;;;19.55;13.50;;;;;;;;;;5079329;28;20048;-78
2021/09/02 04:16:50;;;;;;;15.98;11.25;;;;;;;;;;5079929;28;20029;-78
2021/09/02 04:19:16;;;;;;;13.15;10.93;;;;;;;;;;5098544;28;20400;-78
2021/09/02 04:21:42;;;;;;;13.50;9.80;;;;;;;;;;5080154;28;20058;-78
2021/09/02 04:24:08;;;;;;;16.33;11.45;;;;;;;;;;5098785;28;20036;-78
2021/09/02 04:26:34;;;;;;;14.88;11.07;;;;;;;;;;5081766;28;20477;-78
2021/09/02 04:29:00;;;;;;;14.07;11.18;;;;;;;;;;5102243;28;20111;-78
2021/09/02 04:31:26;;;;;;;13.40;10.30;;;;;;;;;;5092112;28;20507;-77
2021/09/02 04:33:52;;;;;;;15.30;11.15;;;;;;;;;;5090109;28;20063;-77
2021/09/02 04:36:19;;;;;;;17.20;12.07;;;;;;;;;;5084588;28;20024;-77
2021/09/02 04:38:45;;;;;;;20.95;12.32;;;;;;;;;;5094477;28;20380;-78
2021/09/02 04:41:11;;;;;;;17.05;11.93;;;;;;;;;;5094164;28;20020;-77
2021/09/02 04:43:37;;;;;;;18.60;13.70;;;;;;;;;;5094864;28;20035;-77
2021/09/02 04:46:03;;;;;;;23.17;15.38;;;;;;;;;;5095302;28;20055;-81
2021/09/02 04:48:29;;;;;;;30.90;18.20;;;;;;;;;;5095745;28;20024;-81
2021/09/02 04:50:55;;;;;;;27.08;17.52;;;;;;;;;;5094762;28;20028;-79
2021/09/02 04:53:21;;;;;;;24.77;16.90;;;;;;;;;;5095486;28;20028;-80
2021/09/02 04:55:47;;;;;;;25.00;17.02;;;;;;;;;;5096428;28;20038;-79
2021/09/02 04:58:14;;;;;;;28.35;18.05;;;;;;;;;;5096201;28;20067;-79
2021/09/02 05:00:40;;;;;;;29.73;18.02;;;;;;;;;;5075883;28;20028;-78
2021/09/02 05:03:06;;;;;;;26.08;16.77;;;;;;;;;;5097004;28;20194;-79
2021/09/02 05:05:32;;;;;;;23.48;15.48;;;;;;;;;;5079598;28;20032;-79
2021/09/02 05:07:59;;;;;;;23.80;15.32;;;;;;;;;;5096249;28;20016;-79
2021/09/02 05:10:25;;;;;;;23.42;15.32;;;;;;;;;;5076073;28;20016;-79
2021/09/02 05:12:51;;;;;;;21.80;14.77;;;;;;;;;;5094617;28;20028;-79
2021/09/02 05:15:18;;;;;;;25.77;16.05;;;;;;;;;;5076004;28;20020;-79
2021/09/02 05:17:47;;;;;;;24.30;15.75;;;;;;;;;;5094972;28;20032;-79
2021/09/02 05:20:13;;;;;;;24.20;14.98;;;;;;;;;;5094330;28;20024;-79
2021/09/02 05:22:39;;;;;;;22.40;15.20;;;;;;;;;;5094111;28;20105;-79
2021/09/02 05:25:06;;;;;;;22.50;15.75;;;;;;;;;;5076497;28;20059;-79
2021/09/02 05:27:32;;;;;;;24.50;16.65;;;;;;;;;;5094975;28;20027;-79
2021/09/02 05:29:58;;;;;;;27.05;17.27;;;;;;;;;;5083150;28;20048;-78
2021/09/02 05:32:24;;;;;;;26.55;17.50;;;;;;;;;;5079647;28;20091;-80
2021/09/02 05:34:50;;;;;;;28.20;18.55;;;;;;;;;;5102856;28;20050;-78
2021/09/02 05:37:16;;;;;;;32.33;18.48;;;;;;;;;;5094033;28;20504;-79
2021/09/02 05:39:42;;;;;;;27.05;18.65;;;;;;;;;;5098406;28;20043;-79
2021/09/02 05:42:09;;;;;;;29.08;17.55;;;;;;;;;;5089994;28;20055;-79
2021/09/02 05:44:35;;;;;;;28.02;17.98;;;;;;;;;;5090155;28;20032;-80
2021/09/02 05:47:01;;;;;;;26.83;18.30;;;;;;;;;;5084123;28;20032;-79
2021/09/02 05:49:27;;;;;;;27.80;18.73;;;;;;;;;;5079065;28;20025;-79
2021/09/02 05:51:53;;;;;;;24.48;16.88;;;;;;;;;;5060989;28;20024;-78
2021/09/02 05:54:19;;;;;;;29.77;18.00;;;;;;;;;;5084845;28;20043;-79
2021/09/02 05:56:45;;;;;;;26.45;18.50;;;;;;;;;;5087520;28;20033;-79
2021/09/02 05:59:12;;;;;;;23.63;16.80;;;;;;;;;;5082422;28;20051;-79
2021/09/02 06:01:38;;;;;;;23.15;17.08;;;;;;;;;;5085196;28;20039;-79
2021/09/02 06:04:04;;;;;;;24.30;16.65;;;;;;;;;;5067556;28;20029;-80
2021/09/02 06:06:30;;;;;;;23.33;15.38;;;;;;;;;;5094793;28;20034;-79
2021/09/02 06:08:56;;;;;;;25.13;15.90;;;;;;;;;;5095612;28;20039;-79
2021/09/02 06:11:22;;;;;;;28.55;15.27;;;;;;;;;;5093777;28;20512;-80
2021/09/02 06:13:48;;;;;;;23.98;15.55;;;;;;;;;;5085246;28;20075;-80
2021/09/02 06:16:14;;;;;;;24.25;15.00;;;;;;;;;;5074033;28;20028;-79
2021/09/02 06:18:40;;;;;;;23.95;14.82;;;;;;;;;;5055915;28;20028;-79
2021/09/02 06:21:06;;;;;;;18.08;14.50;;;;;;;;;;5074872;28;20056;-79
2021/09/02 06:23:32;;;;;;;19.70;14.35;;;;;;;;;;5073872;28;20021;-78
2021/09/02 06:25:58;;;;;;;18.23;11.98;;;;;;;;;;5074407;28;20542;-78
2021/09/02 06:28:24;;;;;;;19.08;13.57;;;;;;;;;;5061200;28;20021;-78
2021/09/02 06:30:50;;;;;;;16.67;11.98;;;;;;;;;;5088129;28;20073;-78
2021/09/02 06:33:16;;;;;;;15.30;10.80;;;;;;;;;;5078656;28;20032;-79
2021/09/02 06:35:42;;;;;;;17.73;11.48;;;;;;;;;;5079378;28;20021;-79
2021/09/02 06:38:09;;;;;;;16.35;10.60;;;;;;;;;;5074231;28;20043;-78
2021/09/02 06:40:35;;;;;;;14.63;10.52;;;;;;;;;;5073509;28;20040;-78
2021/09/02 06:43:01;;;;;;;13.73;10.85;;;;;;;;;;5073090;28;20048;-77
2021/09/02 06:45:27;;;;;;;13.32;10.55;;;;;;;;;;5080477;28;20488;-78
2021/09/02 06:47:53;;;;;;;16.85;11.13;;;;;;;;;;5095455;28;20020;-77
2021/09/02 06:50:19;;;;;;;14.90;10.60;;;;;;;;;;5094913;28;20396;-77
2021/09/02 06:52:45;;;;;;;17.30;10.15;;;;;;;;;;5091821;28;20024;-77
2021/09/02 06:55:11;;;;;;;13.65;9.77;;;;;;;;;;5094414;28;20475;-78
2021/09/02 06:57:38;;;;;;;12.38;9.55;;;;;;;;;;5077279;28;20557;-78
2021/09/02 07:00:04;;;;;;;11.55;8.50;;;;;;;;;;5095589;28;20027;-77
2021/09/02 07:02:30;;;;;;;10.13;7.28;;;;;;;;;;5083042;28;20036;-77
2021/09/02 07:04:56;;;;;;;12.32;7.75;;;;;;;;;;5091780;28;20035;-77
2021/09/02 07:07:22;;;;;;;10.02;7.70;;;;;;;;;;5097277;28;20030;-77
2021/09/02 07:09:48;;;;;;;9.90;7.20;;;;;;;;;;5077140;28;20498;-77
2021/09/02 07:12:14;;;;;;;8.90;6.75;;;;;;;;;;5074886;28;20016;-78
2021/09/02 07:14:41;;;;;;;10.02;6.72;;;;;;;;;;5056438;28;20066;-77
2021/09/02 07:17:07;;;;;;;10.13;6.43;;;;;;;;;;5074921;28;20033;-77
2021/09/02 07:19:33;;;;;;;7.95;6.18;;;;;;;;;;5066927;28;20036;-77
2021/09/02 07:21:59;;;;;;;12.07;7.07;;;;;;;;;;5094890;28;20102;-77
2021/09/02 07:24:25;;;;;;;7.85;6.28;;;;;;;;;;5088413;28;20039;-78
2021/09/02 07:26:51;;;;;;;9.02;6.20;;;;;;;;;;5094717;28;20035;-79
2021/09/02 07:29:17;;;;;;;9.07;6.18;;;;;;;;;;5094429;28;20023;-77
2021/09/02 07:31:43;;;;;;;8.25;6.10;;;;;;;;;;5074412;28;20025;-76
2021/09/02 07:34:09;;;;;;;10.90;7.03;;;;;;;;;;5084743;28;20032;-76
2021/09/02 07:36:36;;;;;;;13.30;6.25;;;;;;;;;;5081188;28;20492;-76
2021/09/02 07:39:03;;;;;;;10.32;5.38;;;;;;;;;;5081162;28;20850;-76
2021/09/02 07:41:29;;;;;;;14.73;6.50;;;;;;;;;;5094084;28;20058;-76
2021/09/02 07:43:55;;;;;;;7.47;5.45;;;;;;;;;;5073091;28;20028;-76
2021/09/02 07:46:21;;;;;;;8.02;5.85;;;;;;;;;;5088865;28;20028;-76
2021/09/02 07:48:47;;;;;;;8.02;5.97;;;;;;;;;;5093470;28;20024;-77
2021/09/02 07:51:14;;;;;;;10.07;5.80;;;;;;;;;;5093577;28;20026;-77
2021/09/02 07:53:41;;;;;;;7.65;4.97;;;;;;;;;;5092643;28;20035;-75
2021/09/02 07:56:07;;;;;;;9.88;5.68;;;;;;;;;;5074680;28;20032;-78
2021/09/02 07:58:33;;;;;;;6.72;5.30;;;;;;;;;;5074647;28;20123;-75
2021/09/02 08:00:59;;;;;;;12.88;5.53;;;;;;;;;;5093003;28;20046;-75
2021/09/02 08:03:25;;;;;;;14.43;6.78;;;;;;;;;;5089567;28;20548;-75
2021/09/02 08:05:51;;;;;;;16.52;5.88;;;;;;;;;;5054406;28;20131;-76
2021/09/02 08:08:17;;;;;;;9.02;5.35;;;;;;;;;;5075158;28;20024;-75
2021/09/02 08:10:44;;;;;;;6.97;4.82;;;;;;;;;;5092801;28;20092;-75
2021/09/02 08:13:11;;;;;;;7.05;4.70;;;;;;;;;;5093240;28;20024;-75
2021/09/02 08:15:37;;;;;;;8.50;4.63;;;;;;;;;;5092926;28;20038;-76
2021/09/02 08:18:04;;;;;;;7.13;4.80;;;;;;;;;;5074975;28;20028;-76
2021/09/02 08:20:30;;;;;;;7.60;4.70;;;;;;;;;;5074185;28;20504;-75
2021/09/02 08:22:56;;;;;;;6.82;4.70;;;;;;;;;;5074631;28;20028;-75
2021/09/02 08:25:22;;;;;;;7.47;4.40;;;;;;;;;;5074738;28;20460;-76
2021/09/02 08:27:49;;;;;;;8.90;4.60;;;;;;;;;;5074974;28;20039;-76
2021/09/02 08:30:16;;;;;;;6.18;4.65;;;;;;;;;;5091885;28;20073;-76
2021/09/02 08:32:47;;;;;;;10.55;4.85;;;;;;;;;;5092693;28;20054;-76
2021/09/02 08:35:14;;;;;;;6.55;4.00;;;;;;;;;;5074562;28;20032;-76
2021/09/02 08:37:40;;;;;;;7.57;4.72;;;;;;;;;;5092919;28;20035;-75
2021/09/02 08:40:06;;;;;;;6.65;4.90;;;;;;;;;;5091972;28;20073;-76
2021/09/02 08:42:32;;;;;;;6.72;4.60;;;;;;;;;;5092482;28;20391;-76
2021/09/02 08:44:58;;;;;;;8.80;4.88;;;;;;;;;;5092457;28;20034;-76
2021/09/02 08:47:24;;;;;;;8.43;4.47;;;;;;;;;;5092732;28;20025;-76
2021/09/02 08:49:50;;;;;;;7.53;4.30;;;;;;;;;;5092193;28;20028;-76
2021/09/02 08:52:16;;;;;;;6.70;4.60;;;;;;;;;;5092942;28;20554;-76
2021/09/02 08:54:43;;;;;;;10.55;4.38;;;;;;;;;;5074351;28;20028;-76
2021/09/02 08:57:09;;;;;;;5.82;4.10;;;;;;;;;;5092169;28;20024;-77
2021/09/02 08:59:34;;;;;;;5.68;3.38;;;;;;;;;;5092356;28;20128;-76
2021/09/02 09:02:00;;;;;;;6.30;4.35;;;;;;;;;;5076516;28;20453;-76
2021/09/02 09:04:34;;;;;;;7.18;4.20;;;;;;;;;;5064235;28;20035;-76
2021/09/02 09:06:59;;;;;;;7.82;4.13;;;;;;;;;;5091581;28;20058;-76
2021/09/02 09:09:25;;;;;;;7.13;3.85;;;;;;;;;;5091956;28;20060;-76
2021/09/02 09:11:53;;;;;;;6.32;4.22;;;;;;;;;;5074311;28;20420;-77
2021/09/02 09:14:24;;;;;;;8.02;4.07;;;;;;;;;;5092129;28;20103;-77
2021/09/02 09:16:51;;;;;;;6.93;4.30;;;;;;;;;;5091809;28;20024;-76
2021/09/02 09:19:36;;;;;;;9.73;3.97;;;;;;;;;;5091320;28;20443;-76
2021/09/02 09:22:03;;;;;;;7.30;4.28;;;;;;;;;;5091744;28;20028;-77
2021/09/02 09:24:42;;;;;;;5.32;3.90;;;;;;;;;;5091603;28;20435;-77
2021/09/02 09:27:08;;;;;;;7.53;3.92;;;;;;;;;;5073485;28;20069;-77
2021/09/02 09:29:34;;;;;;;5.68;3.70;;;;;;;;;;5090893;28;20481;-77
2021/09/02 09:32:17;;;;;;;5.00;3.60;;;;;;;;;;5073072;28;20081;-77
2021/09/02 09:34:48;;;;;;;5.05;3.85;;;;;;;;;;5091501;28;20110;-77
2021/09/02 09:37:14;;;;;;;5.85;3.95;;;;;;;;;;5071342;28;20024;-77
2021/09/02 09:39:40;;;;;;;6.38;3.55;;;;;;;;;;5076469;28;20063;-77
2021/09/02 09:42:06;;;;;;;5.72;3.67;;;;;;;;;;5091290;28;20031;-78
2021/09/02 09:44:32;;;;;;;6.45;3.80;;;;;;;;;;5091288;28;20028;-77
2021/09/02 09:47:22;;;;;;;7.53;4.80;;;;;;;;;;5090676;28;20036;-77
2021/09/02 09:49:53;;;;;;;7.50;3.97;;;;;;;;;;5090476;28;20114;-77
2021/09/02 09:52:27;;;;;;;8.90;5.50;;;;;;;;;;5094237;28;20296;-78
2021/09/02 09:54:55;;;;;;;6.60;4.40;;;;;;;;;;5094192;28;20024;-78
2021/09/02 09:57:21;;;;;;;5.53;4.18;;;;;;;;;;5092337;28;20020;-77
2021/09/02 09:59:48;;;;;;;4.50;3.35;;;;;;;;;;5092535;28;20020;-78
2021/09/02 10:02:14;;;;;;;7.20;3.85;;;;;;;;;;5073416;28;20123;-77
2021/09/02 10:04:41;;;;;;;4.57;3.20;;;;;;;;;;5078855;28;20115;-77
2021/09/02 10:07:09;;;;;;;6.32;3.60;;;;;;;;;;5071211;28;20016;-77
2021/09/02 10:09:35;;;;;;;7.88;3.70;;;;;;;;;;5070786;28;20044;-78
2021/09/02 10:12:02;;;;;;;6.75;3.83;;;;;;;;;;5073028;28;20025;-78
2021/09/02 10:14:28;;;;;;;10.10;3.67;;;;;;;;;;5073315;28;20031;-77
2021/09/02 10:16:56;;;;;;;6.22;3.90;;;;;;;;;;5072831;28;20082;-78
2021/09/02 10:19:22;;;;;;;7.15;4.70;;;;;;;;;;5073238;28;20027;-77
2021/09/02 10:21:50;;;;;;;7.28;3.78;;;;;;;;;;5079156;28;20024;-78
2021/09/02 10:24:37;;;;;;;6.32;4.18;;;;;;;;;;5092060;28;20114;-77
2021/09/02 10:27:23;;;;;;;6.20;4.15;;;;;;;;;;5095719;28;20016;-79
2021/09/02 10:29:49;;;;;;;5.78;3.47;;;;;;;;;;5092857;28;20107;-78
2021/09/02 10:32:26;;;;;;;7.82;3.47;;;;;;;;;;5094562;28;20028;-77
2021/09/02 10:35:12;;;;;;;8.70;3.65;;;;;;;;;;5074955;28;20081;-82
2021/09/02 10:37:43;;;;;;;8.60;3.60;;;;;;;;;;5091787;28;20493;-76
2021/09/02 10:40:29;;;;;;;5.85;3.90;;;;;;;;;;5090237;28;20495;-78
2021/09/02 10:42:56;;;;;;;6.97;3.60;;;;;;;;;;5059868;28;20028;-78
2021/09/02 10:45:25;;;;;;;4.38;3.20;;;;;;;;;;5091716;28;20024;-78
2021/09/02 10:47:51;;;;;;;5.97;3.90;;;;;;;;;;5073688;28;20502;-78
2021/09/02 10:50:21;;;;;;;7.45;3.75;;;;;;;;;;5091066;28;20029;-77
2021/09/02 10:52:47;;;;;;;5.10;3.80;;;;;;;;;;5093223;28;20031;-78
2021/09/02 10:55:29;;;;;;;4.88;3.80;;;;;;;;;;5094888;28;20024;-78
2021/09/02 10:57:57;;;;;;;;;;;;;;;;;;5095321;28;20024;-77
2021/09/02 11:00:36;;;;;;;8.18;3.55;;;;;;;;;;5090313;28;19904;-77
2021/09/02 11:03:19;;;;;;;5.28;3.80;;;;;;;;;;5090187;28;20031;-78
2021/09/02 11:05:45;;;;;;;;;;;;;;;;;;5090102;28;20024;-78
2021/09/02 11:08:11;;;;;;;5.13;3.95;;;;;;;;;;5095392;28;20423;-78
2021/09/02 11:10:37;;;;;;;7.40;3.90;;;;;;;;;;5092175;28;20024;-78
2021/09/02 11:13:04;;;;;;;7.22;3.72;;;;;;;;;;5075684;28;20504;-78
2021/09/02 11:15:30;;;;;;;6.75;3.80;;;;;;;;;;5093650;28;20036;-78
2021/09/02 11:17:57;;;;;;;6.90;3.55;;;;;;;;;;5094621;28;20581;-77
2021/09/02 11:20:26;;;;;;;4.07;3.10;;;;;;;;;;5093192;28;20024;-77
2021/09/02 11:23:05;;;;;;;7.75;3.72;;;;;;;;;;5094070;28;20052;-77
2021/09/02 11:25:38;;;;;;;4.70;3.35;;;;;;;;;;5094574;28;20028;-78
2021/09/02 11:28:04;;;;;;;4.10;2.95;;;;;;;;;;5086954;28;20082;-78
2021/09/02 11:30:33;;;;;;;4.18;3.33;;;;;;;;;;5092543;28;20020;-78
2021/09/02 11:33:00;;;;;;;4.65;3.35;;;;;;;;;;5095510;28;20035;-78
2021/09/02 11:35:26;;;;;;;5.53;3.10;;;;;;;;;;5095709;28;20167;-78
2021/09/02 11:37:52;;;;;;;8.52;3.47;;;;;;;;;;5095550;28;20028;-78
2021/09/02 11:40:32;;;;;;;3.45;2.90;;;;;;;;;;5095188;28;20036;-78
2021/09/02 11:42:58;;;;;;;5.97;3.50;;;;;;;;;;5058424;28;20040;-77
2021/09/02 11:45:26;;;;;;;4.30;3.35;;;;;;;;;;5086531;28;20778;-78
2021/09/02 11:47:53;;;;;;;6.45;3.50;;;;;;;;;;5094645;28;20016;-78
2021/09/02 11:50:20;;;;;;;5.43;3.33;;;;;;;;;;5095181;28;20020;-78
2021/09/02 11:52:47;;;;;;;6.05;3.40;;;;;;;;;;5093914;28;20044;-78
2021/09/02 11:55:32;;;;;;;5.88;3.60;;;;;;;;;;5094490;28;20052;-78
2021/09/02 11:57:59;;;;;;;4.57;3.42;;;;;;;;;;5095501;28;20031;-78
2021/09/02 12:00:26;;;;;;;5.95;3.55;;;;;;;;;;5093483;28;20427;-78
2021/09/02 12:02:53;;;;;;;4.47;3.17;;;;;;;;;;5078650;28;20440;-78
2021/09/02 12:05:24;;;;;;;5.70;3.17;;;;;;;;;;5087908;28;20025;-78
2021/09/02 12:07:51;;;;;;;5.40;3.10;;;;;;;;;;5095679;28;20076;-78
2021/09/02 12:10:19;;;;;;;6.05;3.85;;;;;;;;;;5095482;28;20254;-78
2021/09/02 12:12:45;;;;;;;7.05;3.88;;;;;;;;;;5080809;28;20012;-78
2021/09/02 12:15:23;;;;;;;5.38;3.53;;;;;;;;;;5079894;28;20044;-78
2021/09/02 12:17:50;;;;;;;5.10;3.33;;;19.60;99.90;;;;;;5080346;28;20025;-78
2021/09/02 12:20:24;;;;;;;7.15;3.63;;;;;;;;;;5061815;28;20104;-78
2021/09/02 12:22:50;;;;;;;7.00;3.53;;;;;;;;;;5072332;28;20031;-77
2021/09/02 12:25:21;;;;;;;6.93;3.83;;;;;;;;;;5096334;28;20024;-77
2021/09/02 12:27:49;;;;;;;5.57;3.95;;;;;;;;;;5093230;28;20058;-78
2021/09/02 12:30:16;;;;;;;5.55;3.40;;;;;;;;;;5092516;28;20110;-78
2021/09/02 12:32:42;;;;;;;4.68;3.50;;;;;;;;;;5074565;28;20421;-77
2021/09/02 12:35:12;;;;;;;6.82;4.05;;;;;;;;;;5093128;28;20429;-77
2021/09/02 12:37:38;;;;;;;4.05;3.33;;;;;;;;;;5093097;28;20024;-78
2021/09/02 12:40:11;;;;;;;5.85;3.88;;;;;;;;;;5092164;28;20615;-78
2021/09/02 12:42:37;;;;;;;4.72;3.22;;;;;;;;;;5074398;28;20051;-78
2021/09/02 12:45:03;;;;;;;5.03;3.35;;;;;;;;;;5092709;28;20028;-79
2021/09/02 12:47:29;;;;;;;6.78;3.80;;;;;;;;;;5092683;28;20016;-79
2021/09/02 12:49:55;;;;;;;5.40;3.60;;;;;;;;;;5074018;28;20036;-79
2021/09/02 12:52:22;;;;;;;6.35;3.42;;;;;;;;;;5092971;28;20028;-79
2021/09/02 12:55:00;;;;;;;7.38;3.67;;;;;;;;;;5092786;28;20028;-78
2021/09/02 12:57:27;;;;;;;4.32;3.70;;;;;;;;;;5092258;28;20127;-80
2021/09/02 12:59:53;;;;;;;6.15;3.63;;;;;;;;;;5090695;28;20091;-76
2021/09/02 13:02:19;;;;;;;5.68;3.50;;;;;;;;;;5091733;28;20038;-78
2021/09/02 13:04:45;;;;;;;5.63;4.03;;;;;;;;;;5083275;28;20420;-77
2021/09/02 13:07:11;;;;;;;4.68;3.60;;;;;;;;;;5086067;28;20028;-76
2021/09/02 13:09:37;;;;;;;5.78;4.10;;;;;;;;;;5084782;28;20052;-77
2021/09/02 13:12:03;;;;;;;7.60;3.75;;;;;;;;;;5059433;28;20044;-77
2021/09/02 13:14:29;;;;;;;4.80;3.85;;;;;;;;;;5079141;28;20028;-77
2021/09/02 13:16:55;;;;;;;7.10;3.92;;;;;;;;;;5082807;28;20717;-77
2021/09/02 13:19:22;;;;;;;4.68;3.63;;;;;;;;;;5081324;28;20028;-77
2021/09/02 13:21:48;;;;;;;5.68;3.50;;;;;;;;;;5083207;28;20500;-77
2021/09/02 13:24:14;;;;;;;5.20;4.10;;;;;;;;;;5079542;28;20067;-77
2021/09/02 13:26:40;;;;;;;5.40;3.78;;;;;;;;;;5065541;28;20050;-77
2021/09/02 13:29:06;;;;;;;4.63;3.65;;;;;;;;;;5083816;28;20074;-77
2021/09/02 13:31:32;;;;;;;4.75;3.20;;;;;;;;;;5063578;28;20110;-75
2021/09/02 13:33:57;;;;;;;5.50;3.63;;;;;;;;;;5081241;28;20453;-77
2021/09/02 13:36:24;;;;;;;3.80;3.20;;;;;;;;;;5067953;28;20035;-77
2021/09/02 13:38:50;;;;;;;4.13;3.30;;;;;;;;;;5064858;28;20016;-77
2021/09/02 13:41:19;;;;;;;4.28;3.40;;;;;;;;;;5084271;28;20129;-77
2021/09/02 13:43:45;;;;;;;4.03;3.30;;;;;;;;;;5084152;28;20034;-78
2021/09/02 13:46:11;;;;;;;8.38;3.90;;;;;;;;;;5078764;28;20032;-78
2021/09/02 13:48:37;;;;;;;5.95;3.65;;;32.80;57.60;;;;;;5062695;28;20055;-77
2021/09/02 13:51:03;;;;;;;3.92;3.40;;;35.80;53.60;;;;;;5080917;28;20485;-78
2021/09/02 13:53:29;;;;;;;6.20;3.80;;;36.60;49.30;;;;;;5060353;28;20393;-78
2021/09/02 13:55:54;;;;;;;5.03;3.35;;;36.50;49.80;;;;;;5061185;28;20038;-77
2021/09/02 13:58:20;;;;;;;5.60;3.83;;;36.10;50.70;;;;;;5081527;28;20031;-76
2021/09/02 14:00:46;;;;;;;4.50;3.65;;;36.50;48.90;;;;;;5081015;28;20027;-77
2021/09/02 14:03:12;;;;;;;4.60;3.58;;;36.40;49.30;;;;;;5078689;28;20025;-77
2021/09/02 14:05:38;;;;;;;4.78;3.70;;;36.50;48.60;;;;;;5087011;28;20368;-77
2021/09/02 14:08:05;;;;;;;6.47;3.60;;;36.40;48.50;;;;;;5077774;28;20457;-77
2021/09/02 14:10:32;;;;;;;6.55;3.67;;;36.00;49.70;;;;;;5081879;28;20017;-77
2021/09/02 14:12:58;;;;;;;4.35;3.17;;;36.00;49.70;;;;;;5084680;28;20031;-77
2021/09/02 14:15:23;;;;;;;8.45;3.53;;;35.20;49.50;;;;;;5073492;28;20032;-78
2021/09/02 14:17:49;;;;;;;4.88;3.53;;;34.90;49.90;;;;;;5090981;28;20617;-77
2021/09/02 14:20:15;;;;;;;4.90;3.25;;;34.60;48.70;;;;;;5091303;28;20032;-77
2021/09/02 14:22:42;;;;;;;4.70;3.45;;;34.80;48.10;;;;;;5091170;28;20043;-77
2021/09/02 14:25:09;;;;;;;6.05;3.38;;;35.20;48.50;;;;;;5091170;28;20024;-80